createdAt,value
2023-08-27T00:00:22.347Z,14.73
2023-08-27T00:02:51.618Z,14.74
2023-08-27T00:05:18.793Z,14.70
2023-08-27T00:07:48.744Z,14.76
2023-08-27T00:10:16.793Z,14.78
2023-08-27T00:12:43.618Z,14.74
2023-08-27T00:15:15.068Z,14.72
2023-08-27T00:17:42.038Z,14.77
2023-08-27T00:20:09.734Z,14.75
2023-08-27T00:22:37.123Z,14.79
2023-08-27T00:25:04.381Z,14.95
2023-08-27T00:27:31.456Z,14.99
2023-08-27T00:29:58.629Z,14.99
2023-08-27T00:32:27.833Z,15.12
2023-08-27T00:35:00.166Z,15.13
2023-08-27T00:37:28.121Z,15.13
2023-08-27T00:39:55.107Z,15.20
2023-08-27T00:42:22.167Z,15.30
2023-08-27T00:44:49.408Z,15.32
2023-08-27T00:47:17.757Z,15.33
2023-08-27T00:49:47.057Z,15.34
2023-08-27T00:52:17.384Z,15.27
2023-08-27T00:54:47.064Z,15.17
2023-08-27T00:57:15.900Z,15.07
2023-08-27T00:59:43.185Z,14.99
2023-08-27T01:02:10.342Z,14.85
2023-08-27T01:04:37.650Z,14.81
2023-08-27T01:07:17.673Z,14.83
2023-08-27T01:09:57.328Z,14.69
2023-08-27T01:12:34.401Z,14.62
2023-08-27T01:15:04.122Z,14.53
2023-08-27T01:17:33.852Z,14.54
2023-08-27T01:20:01.310Z,14.52
2023-08-27T01:22:30.991Z,14.42
2023-08-27T01:24:59.915Z,14.45
2023-08-27T01:27:31.040Z,14.46
2023-08-27T01:30:07.918Z,14.30
2023-08-27T01:32:47.989Z,14.25
2023-08-27T01:35:16.515Z,14.18
2023-08-27T01:37:46.510Z,14.22
2023-08-27T01:40:19.112Z,14.14
2023-08-27T01:43:05.861Z,14.04
2023-08-27T01:45:33.024Z,14.08
2023-08-27T01:48:00.337Z,14.21
2023-08-27T01:50:29.615Z,14.20
2023-08-27T01:53:03.058Z,14.16
2023-08-27T01:55:30.128Z,14.19
2023-08-27T01:57:57.208Z,14.27
2023-08-27T02:00:24.431Z,14.32
2023-08-27T02:02:57.529Z,14.24
2023-08-27T02:05:25.165Z,14.32
2023-08-27T02:07:54.776Z,14.33
2023-08-27T02:10:24.380Z,14.36
2023-08-27T02:12:56.295Z,14.44
2023-08-27T02:15:23.534Z,14.42
2023-08-27T02:17:50.799Z,14.41
2023-08-27T02:20:19.289Z,14.48
2023-08-27T02:22:46.357Z,14.44
2023-08-27T02:25:16.348Z,14.45
2023-08-27T02:27:45.057Z,14.53
2023-08-27T02:30:14.623Z,14.58
2023-08-27T02:32:46.172Z,14.59
2023-08-27T02:35:13.398Z,14.58
2023-08-27T02:37:40.571Z,14.62
2023-08-27T02:40:11.625Z,14.64
2023-08-27T02:42:38.775Z,14.54
2023-08-27T02:45:10.932Z,14.57
2023-08-27T02:47:37.911Z,14.60
2023-08-27T02:50:08.316Z,14.64
2023-08-27T02:52:44.394Z,14.65
2023-08-27T02:55:12.439Z,14.70
2023-08-27T02:57:39.755Z,14.76
2023-08-27T03:00:18.952Z,14.77
2023-08-27T03:02:51.648Z,14.79
2023-08-27T03:05:26.259Z,14.68
2023-08-27T03:07:57.183Z,14.69
2023-08-27T03:10:24.335Z,14.70
2023-08-27T03:12:57.003Z,14.65
2023-08-27T03:15:50.630Z,14.66
2023-08-27T03:18:34.632Z,14.57
2023-08-27T03:21:10.431Z,14.65
2023-08-27T03:23:38.877Z,14.52
2023-08-27T03:26:08.057Z,14.52
2023-08-27T03:28:35.404Z,14.58
2023-08-27T03:31:06.339Z,14.59
2023-08-27T03:33:38.499Z,14.63
2023-08-27T03:36:06.176Z,14.70
2023-08-27T03:38:36.403Z,14.60
2023-08-27T03:41:04.706Z,14.63
2023-08-27T03:43:31.897Z,14.66
2023-08-27T03:45:59.358Z,14.60
2023-08-27T03:48:29.678Z,14.64
2023-08-27T03:50:56.743Z,14.62
2023-08-27T03:53:23.774Z,14.49
2023-08-27T03:55:53.705Z,14.43
2023-08-27T03:58:26.697Z,14.49
2023-08-27T04:00:54.055Z,14.48
2023-08-27T04:03:21.332Z,14.52
2023-08-27T04:05:53.709Z,14.50
2023-08-27T04:08:25.418Z,14.61
2023-08-27T04:10:53.525Z,14.54
2023-08-27T04:13:21.709Z,14.68
2023-08-27T04:15:58.733Z,14.66
2023-08-27T04:18:27.074Z,14.69
2023-08-27T04:20:59.066Z,14.74
2023-08-27T04:23:36.618Z,14.82
2023-08-27T04:26:06.111Z,14.88
2023-08-27T04:28:35.621Z,14.58
2023-08-27T04:31:02.581Z,14.51
2023-08-27T04:33:33.119Z,14.58
2023-08-27T04:36:05.282Z,14.56
2023-08-27T04:38:32.185Z,14.40
2023-08-27T04:40:59.149Z,14.32
2023-08-27T04:43:26.914Z,14.42
2023-08-27T04:45:54.208Z,14.20
2023-08-27T04:48:24.385Z,14.17
2023-08-27T04:50:57.670Z,14.23
2023-08-27T04:53:26.387Z,14.21
2023-08-27T04:55:53.711Z,14.32
2023-08-27T04:58:23.309Z,14.34
2023-08-27T05:03:37.012Z,14.31
2023-08-27T05:06:04.427Z,14.39
2023-08-27T05:08:37.617Z,14.40
2023-08-27T05:11:05.489Z,14.47
2023-08-27T05:13:34.827Z,14.30
2023-08-27T05:16:02.960Z,14.27
2023-08-27T05:18:32.293Z,14.41
2023-08-27T05:20:59.322Z,14.28
2023-08-27T05:23:27.209Z,14.46
2023-08-27T05:25:55.676Z,14.49
2023-08-27T05:28:27.978Z,14.31
2023-08-27T05:30:55.121Z,14.33
2023-08-27T05:33:25.116Z,14.24
2023-08-27T05:35:57.286Z,14.20
2023-08-27T05:38:26.355Z,14.27
2023-08-27T05:40:56.896Z,14.34
2023-08-27T05:43:24.677Z,14.23
2023-08-27T05:45:54.193Z,14.23
2023-08-27T05:48:25.619Z,14.21
2023-08-27T05:51:00.985Z,14.16
2023-08-27T05:53:31.385Z,14.25
2023-08-27T05:55:59.861Z,14.33
2023-08-27T05:58:27.109Z,14.22
2023-08-27T06:01:01.658Z,14.33
2023-08-27T06:03:28.909Z,14.30
2023-08-27T06:05:56.141Z,14.21
2023-08-27T06:08:23.598Z,14.17
2023-08-27T06:10:50.745Z,14.22
2023-08-27T06:13:21.234Z,14.21
2023-08-27T06:15:48.400Z,14.19
2023-08-27T06:18:15.501Z,14.15
2023-08-27T06:20:43.869Z,14.15
2023-08-27T06:23:10.941Z,14.12
2023-08-27T06:25:37.936Z,14.11
2023-08-27T06:28:06.771Z,14.25
2023-08-27T06:30:35.423Z,14.12
2023-08-27T06:33:05.489Z,14.17
2023-08-27T06:35:35.520Z,14.30
2023-08-27T06:38:05.667Z,14.16
2023-08-27T06:40:32.984Z,14.19
2023-08-27T06:43:00.037Z,14.35
2023-08-27T06:45:35.337Z,14.56
2023-08-27T06:48:03.689Z,14.36
2023-08-27T06:50:30.956Z,14.40
2023-08-27T06:52:57.985Z,14.65
2023-08-27T06:55:24.970Z,14.64
2023-08-27T06:57:59.397Z,14.65
2023-08-27T07:00:26.656Z,14.66
2023-08-27T07:02:55.756Z,14.71
2023-08-27T07:05:23.545Z,14.81
2023-08-27T07:07:55.624Z,14.78
2023-08-27T07:10:31.465Z,14.82
2023-08-27T07:12:58.644Z,15.12
2023-08-27T07:15:25.882Z,15.12
2023-08-27T07:17:53.148Z,15.25
2023-08-27T07:20:23.855Z,15.42
2023-08-27T07:22:54.497Z,15.48
2023-08-27T07:25:26.048Z,15.56
2023-08-27T07:27:53.394Z,15.64
2023-08-27T07:30:25.405Z,15.83
2023-08-27T07:32:55.077Z,15.93
2023-08-27T07:35:23.738Z,16.13
2023-08-27T07:37:51.501Z,16.33
2023-08-27T07:40:20.988Z,16.42
2023-08-27T07:42:47.959Z,16.47
2023-08-27T07:45:15.127Z,16.67
2023-08-27T07:47:42.277Z,16.75
2023-08-27T07:50:09.567Z,16.77
2023-08-27T07:52:40.829Z,16.97
2023-08-27T07:55:09.231Z,16.92
2023-08-27T07:57:36.381Z,17.01
2023-08-27T08:00:06.594Z,17.16
2023-08-27T08:02:41.153Z,17.12
2023-08-27T08:05:15.417Z,17.22
2023-08-27T08:07:43.830Z,17.31
2023-08-27T08:10:13.124Z,17.32
2023-08-27T08:12:39.955Z,17.32
2023-08-27T08:15:08.072Z,17.17
2023-08-27T08:17:44.849Z,17.19
2023-08-27T08:20:13.564Z,17.29
2023-08-27T08:22:41.044Z,17.27
2023-08-27T08:25:09.382Z,17.38
2023-08-27T08:27:36.160Z,17.56
2023-08-27T08:30:03.841Z,17.73
2023-08-27T08:32:30.738Z,18.03
2023-08-27T08:34:57.694Z,18.31
2023-08-27T08:37:24.782Z,18.66
2023-08-27T08:39:51.705Z,19.32
2023-08-27T08:42:29.573Z,21.60
2023-08-27T08:45:06.510Z,24.74
2023-08-27T08:47:36.118Z,26.81
2023-08-27T08:50:07.162Z,28.10
2023-08-27T08:52:37.894Z,29.29
2023-08-27T08:55:09.411Z,30.17
2023-08-27T08:57:41.722Z,31.10
2023-08-27T09:00:11.196Z,31.64
2023-08-27T09:02:39.912Z,31.85
2023-08-27T09:05:11.040Z,32.08
2023-08-27T09:07:41.373Z,32.60
2023-08-27T09:10:14.458Z,31.22
2023-08-27T09:12:48.074Z,31.45
2023-08-27T09:15:33.418Z,30.50
2023-08-27T09:18:07.132Z,31.81
2023-08-27T09:20:40.856Z,28.96
2023-08-27T09:23:08.933Z,28.25
2023-08-27T09:25:37.222Z,28.51
2023-08-27T09:28:34.550Z,30.96
2023-08-27T09:31:08.749Z,28.98
2023-08-27T09:33:44.416Z,27.25
2023-08-27T09:36:18.339Z,28.72
2023-08-27T09:38:47.927Z,27.45
2023-08-27T09:41:18.789Z,28.69
2023-08-27T09:44:26.291Z,31.06
2023-08-27T09:47:03.949Z,28.39
2023-08-27T09:49:39.392Z,26.81
2023-08-27T09:52:07.173Z,24.99
2023-08-27T09:54:34.304Z,25.87
2023-08-27T09:57:19.422Z,27.85
2023-08-27T10:00:25.144Z,29.31
2023-08-27T10:02:52.098Z,30.59
2023-08-27T10:05:28.958Z,31.27
2023-08-27T10:08:02.247Z,32.64
2023-08-27T10:10:37.738Z,32.07
2023-08-27T10:13:06.171Z,29.41
2023-08-27T10:15:35.596Z,27.56
2023-08-27T10:21:00.204Z,30.66
2023-08-27T10:23:28.689Z,31.42
2023-08-27T10:25:57.076Z,32.86
2023-08-27T10:28:25.048Z,33.72
2023-08-27T10:30:58.117Z,34.65
2023-08-27T10:33:29.993Z,33.12
2023-08-27T10:36:00.791Z,30.73
2023-08-27T10:38:29.799Z,29.57
2023-08-27T10:40:56.757Z,27.91
2023-08-27T10:43:26.792Z,29.28
2023-08-27T10:46:16.147Z,29.47
2023-08-27T10:48:49.641Z,28.97
2023-08-27T10:51:28.956Z,30.41
2023-08-27T10:53:58.070Z,31.90
2023-08-27T10:56:38.637Z,33.56
2023-08-27T10:59:10.269Z,34.01
2023-08-27T11:01:39.963Z,34.46
2023-08-27T11:04:08.108Z,32.89
2023-08-27T11:06:40.429Z,30.62
2023-08-27T11:09:24.726Z,28.80
2023-08-27T11:11:59.032Z,27.44
2023-08-27T11:14:41.655Z,26.44
2023-08-27T11:17:10.099Z,25.41
2023-08-27T11:19:38.301Z,25.10
2023-08-27T11:22:11.034Z,25.42
2023-08-27T11:24:44.984Z,26.90
2023-08-27T11:27:14.807Z,26.45
2023-08-27T11:29:44.589Z,25.94
2023-08-27T11:32:17.475Z,25.91
2023-08-27T11:34:54.991Z,25.66
2023-08-27T11:37:30.986Z,26.85
2023-08-27T11:39:58.129Z,26.37
2023-08-27T11:42:25.325Z,25.35
2023-08-27T11:44:56.307Z,24.59
2023-08-27T11:47:26.208Z,24.12
2023-08-27T11:49:53.339Z,23.66
2023-08-27T11:52:33.504Z,23.29
2023-08-27T11:55:03.313Z,22.71
2023-08-27T11:57:42.623Z,22.38
2023-08-27T12:00:16.879Z,21.85
2023-08-27T12:02:50.681Z,21.56
2023-08-27T12:05:18.058Z,21.72
2023-08-27T12:07:54.308Z,21.73
2023-08-27T12:10:26.544Z,21.94
2023-08-27T12:12:53.614Z,22.49
2023-08-27T12:15:23.604Z,23.76
2023-08-27T12:18:01.522Z,25.97
2023-08-27T12:20:34.418Z,27.41
2023-08-27T12:23:10.555Z,28.55
2023-08-27T12:25:49.397Z,29.59
2023-08-27T12:28:16.959Z,29.65
2023-08-27T12:30:51.149Z,29.71
2023-08-27T12:33:21.108Z,28.48
2023-08-27T12:35:53.053Z,28.02
2023-08-27T12:38:24.778Z,27.58
2023-08-27T12:40:52.145Z,27.20
2023-08-27T12:43:20.229Z,27.42
2023-08-27T12:45:47.277Z,27.78
2023-08-27T12:48:14.241Z,27.21
2023-08-27T12:50:42.507Z,26.15
2023-08-27T12:53:09.319Z,24.66
2023-08-27T12:55:36.369Z,23.38
2023-08-27T12:58:03.579Z,22.43
2023-08-27T13:00:30.683Z,21.83
2023-08-27T13:02:58.241Z,21.56
2023-08-27T13:05:25.501Z,21.15
2023-08-27T13:07:53.659Z,20.85
2023-08-27T13:10:20.667Z,20.25
2023-08-27T13:12:50.431Z,20.19
2023-08-27T13:15:20.700Z,19.99
2023-08-27T13:17:50.135Z,19.63
2023-08-27T13:20:17.173Z,19.34
2023-08-27T13:22:43.974Z,19.11
2023-08-27T13:25:12.734Z,18.93
2023-08-27T13:27:39.670Z,18.72
2023-08-27T13:30:09.785Z,18.66
2023-08-27T13:32:44.180Z,18.56
2023-08-27T13:35:11.260Z,18.42
2023-08-27T13:37:38.190Z,18.27
2023-08-27T13:40:08.577Z,18.36
2023-08-27T13:42:39.572Z,18.37
2023-08-27T13:45:10.083Z,18.39
2023-08-27T13:47:40.155Z,18.46
2023-08-27T13:50:07.536Z,18.56
2023-08-27T13:52:34.620Z,18.73
2023-08-27T13:55:01.607Z,18.82
2023-08-27T13:57:28.593Z,18.77
2023-08-27T13:59:56.892Z,18.82
2023-08-27T14:02:23.919Z,19.04
2023-08-27T14:04:52.649Z,19.40
2023-08-27T14:07:19.498Z,19.88
2023-08-27T14:09:46.649Z,20.00
2023-08-27T14:12:13.578Z,20.05
2023-08-27T14:14:40.583Z,20.11
2023-08-27T14:17:09.112Z,20.20
2023-08-27T14:19:35.851Z,20.26
2023-08-27T14:22:02.810Z,20.09
2023-08-27T14:24:33.038Z,20.18
2023-08-27T14:27:07.818Z,19.90
2023-08-27T14:29:36.641Z,19.85
2023-08-27T14:32:03.783Z,19.75
2023-08-27T14:34:32.158Z,19.84
2023-08-27T14:36:59.568Z,20.01
2023-08-27T14:39:26.674Z,20.09
2023-08-27T14:41:53.587Z,19.92
2023-08-27T14:44:20.771Z,20.13
2023-08-27T14:46:47.813Z,20.37
2023-08-27T14:49:14.798Z,20.29
2023-08-27T14:51:43.051Z,20.36
2023-08-27T14:54:10.006Z,20.35
2023-08-27T14:56:38.633Z,20.10
2023-08-27T14:59:35.608Z,20.19
2023-08-27T15:02:02.596Z,20.11
2023-08-27T15:04:29.359Z,20.02
2023-08-27T15:06:57.922Z,19.98
2023-08-27T15:09:25.027Z,19.81
2023-08-27T15:11:54.800Z,19.83
2023-08-27T15:14:23.733Z,19.77
2023-08-27T15:16:56.546Z,19.70
2023-08-27T15:19:28.196Z,19.67
2023-08-27T15:21:59.248Z,19.68
2023-08-27T15:24:26.203Z,19.65
2023-08-27T15:26:55.632Z,19.61
2023-08-27T15:29:27.799Z,19.56
2023-08-27T15:31:54.695Z,19.54
2023-08-27T15:34:30.028Z,19.62
2023-08-27T15:36:57.136Z,19.70
2023-08-27T15:39:25.526Z,19.65
2023-08-27T15:41:54.187Z,19.60
2023-08-27T15:44:23.163Z,19.71
2023-08-27T15:46:50.268Z,19.71
2023-08-27T15:49:18.309Z,19.68
2023-08-27T15:51:45.117Z,19.51
2023-08-27T15:54:12.525Z,19.47
2023-08-27T15:56:40.928Z,19.47
2023-08-27T15:59:07.732Z,19.49
2023-08-27T16:01:34.482Z,19.45
2023-08-27T16:04:01.372Z,19.37
2023-08-27T16:06:28.269Z,19.38
2023-08-27T16:08:55.149Z,19.32
2023-08-27T16:11:22.193Z,19.35
2023-08-27T16:13:52.074Z,19.29
2023-08-27T16:16:24.009Z,19.27
2023-08-27T16:18:54.094Z,19.27
2023-08-27T16:21:24.073Z,19.23
2023-08-27T16:23:52.957Z,19.20
2023-08-27T16:26:19.920Z,19.23
2023-08-27T16:28:47.260Z,19.21
2023-08-27T16:31:26.537Z,19.15
2023-08-27T16:33:55.737Z,19.09
2023-08-27T16:36:28.612Z,18.96
2023-08-27T16:38:55.512Z,18.96
2023-08-27T16:41:25.429Z,19.02
2023-08-27T16:43:55.324Z,18.93
2023-08-27T16:46:25.631Z,18.91
2023-08-27T16:48:52.445Z,18.88
2023-08-27T16:51:20.986Z,18.85
2023-08-27T16:53:47.918Z,18.83
2023-08-27T16:56:14.998Z,18.73
2023-08-27T16:58:43.144Z,18.75
2023-08-27T17:01:10.186Z,18.76
2023-08-27T17:03:49.106Z,18.74
2023-08-27T17:06:24.948Z,18.75
2023-08-27T17:08:56.123Z,18.72
2023-08-27T17:11:34.447Z,18.67
2023-08-27T17:14:02.506Z,18.69
2023-08-27T17:16:29.485Z,18.71
2023-08-27T17:18:57.722Z,18.72
2023-08-27T17:21:26.052Z,18.60
2023-08-27T17:24:02.501Z,18.55
2023-08-27T17:26:31.435Z,18.34
2023-08-27T17:28:58.326Z,18.26
2023-08-27T17:31:37.653Z,18.09
2023-08-27T17:34:06.195Z,18.08
2023-08-27T17:36:35.083Z,18.04
2023-08-27T17:39:02.239Z,17.97
2023-08-27T17:41:29.935Z,17.95
2023-08-27T17:43:56.968Z,18.03
2023-08-27T17:46:24.573Z,18.06
2023-08-27T17:48:54.374Z,18.08
2023-08-27T17:51:25.561Z,18.07
2023-08-27T17:53:54.284Z,18.04
2023-08-27T17:56:24.307Z,18.01
2023-08-27T17:58:53.779Z,17.97
2023-08-27T18:01:20.874Z,17.91
2023-08-27T18:03:47.955Z,17.81
2023-08-27T18:06:14.783Z,17.74
2023-08-27T18:08:43.014Z,17.62
2023-08-27T18:11:09.873Z,17.51
2023-08-27T18:13:36.687Z,17.48
2023-08-27T18:16:03.747Z,17.41
2023-08-27T18:18:30.611Z,17.37
2023-08-27T18:20:57.356Z,17.29
2023-08-27T18:23:24.082Z,17.26
2023-08-27T18:25:52.963Z,17.16
2023-08-27T18:28:19.770Z,17.11
2023-08-27T18:30:46.556Z,17.00
2023-08-27T18:33:13.493Z,16.91
2023-08-27T18:35:40.162Z,16.82
2023-08-27T18:38:06.985Z,16.73
2023-08-27T18:40:35.479Z,16.64
2023-08-27T18:43:03.870Z,16.65
2023-08-27T18:45:31.096Z,16.59
2023-08-27T18:47:57.833Z,16.54
2023-08-27T18:50:24.578Z,16.39
2023-08-27T18:52:51.272Z,16.34
2023-08-27T18:55:18.029Z,16.24
2023-08-27T18:57:45.002Z,16.06
2023-08-27T19:00:13.441Z,16.04
2023-08-27T19:02:40.300Z,15.97
2023-08-27T19:05:07.905Z,16.00
2023-08-27T19:07:34.647Z,15.88
2023-08-27T19:10:01.318Z,15.74
2023-08-27T19:12:28.109Z,15.61
2023-08-27T19:14:55.112Z,15.62
2023-08-27T19:17:23.340Z,15.53
2023-08-27T19:19:50.166Z,15.47
2023-08-27T19:22:17.959Z,15.51
2023-08-27T19:24:44.718Z,15.35
2023-08-27T19:27:11.529Z,15.32
2023-08-27T19:29:38.273Z,15.38
2023-08-27T19:32:05.041Z,15.31
2023-08-27T19:34:33.139Z,15.21
2023-08-27T19:36:59.727Z,15.15
2023-08-27T19:39:26.346Z,15.12
2023-08-27T19:41:53.210Z,15.05
2023-08-27T19:44:19.973Z,15.00
2023-08-27T19:46:46.668Z,14.93
2023-08-27T19:49:13.519Z,14.91
2023-08-27T19:51:43.017Z,14.93
2023-08-27T19:54:09.751Z,14.81
2023-08-27T19:56:36.407Z,14.77
2023-08-27T19:59:03.119Z,14.82
2023-08-27T20:01:30.025Z,14.74
2023-08-27T20:03:56.796Z,14.65
2023-08-27T20:06:23.587Z,14.74
2023-08-27T20:08:51.630Z,14.67
2023-08-27T20:11:18.401Z,14.53
2023-08-27T20:13:45.039Z,14.37
2023-08-27T20:16:11.953Z,14.52
2023-08-27T20:18:38.659Z,14.31
2023-08-27T20:21:05.445Z,14.35
2023-08-27T20:23:32.522Z,14.31
2023-08-27T20:26:00.695Z,14.26
2023-08-27T20:28:27.416Z,14.27
2023-08-27T20:30:54.069Z,14.27
2023-08-27T20:33:20.650Z,14.16
2023-08-27T20:35:47.365Z,14.19
2023-08-27T20:38:14.153Z,14.13
2023-08-27T20:40:41.013Z,14.05
2023-08-27T20:43:09.147Z,14.03
2023-08-27T20:45:35.867Z,13.92
2023-08-27T20:48:03.262Z,13.96
2023-08-27T20:50:30.081Z,14.00
2023-08-27T20:52:56.838Z,13.84
2023-08-27T20:55:23.576Z,13.77
2023-08-27T20:57:50.236Z,13.71
2023-08-27T21:00:18.376Z,13.74
2023-08-27T21:02:45.198Z,13.73
2023-08-27T21:05:11.994Z,13.81
2023-08-27T21:07:39.119Z,13.69
2023-08-27T21:10:06.936Z,13.79
2023-08-27T21:12:34.555Z,13.63
2023-08-27T21:15:01.587Z,13.59
2023-08-27T21:17:29.625Z,13.69
2023-08-27T21:19:56.353Z,13.62
2023-08-27T21:22:23.129Z,13.67
2023-08-27T21:24:49.968Z,13.55
2023-08-27T21:27:16.790Z,13.46
2023-08-27T21:29:43.781Z,13.47
2023-08-27T21:32:10.594Z,13.46
2023-08-27T21:34:38.824Z,13.44
2023-08-27T21:37:05.751Z,13.39
2023-08-27T21:39:32.441Z,13.37
2023-08-27T21:41:59.224Z,13.35
2023-08-27T21:44:25.979Z,13.45
2023-08-27T21:46:52.577Z,13.30
2023-08-27T21:49:19.259Z,13.28
2023-08-27T21:51:47.347Z,13.29
2023-08-27T21:54:14.082Z,13.33
2023-08-27T21:56:41.069Z,13.25
2023-08-27T21:59:07.775Z,13.36
2023-08-27T22:01:34.801Z,13.24
2023-08-27T22:04:01.516Z,13.24
2023-08-27T22:06:28.362Z,13.18
2023-08-27T22:08:56.916Z,13.13
2023-08-27T22:11:23.618Z,13.15
2023-08-27T22:13:50.426Z,13.15
2023-08-27T22:16:17.118Z,13.01
2023-08-27T22:18:44.041Z,13.12
2023-08-27T22:21:10.770Z,13.06
2023-08-27T22:23:37.438Z,13.16
2023-08-27T22:26:05.659Z,13.12
2023-08-27T22:28:32.487Z,13.01
2023-08-27T22:30:59.179Z,13.09
2023-08-27T22:33:25.916Z,13.02
2023-08-27T22:35:52.700Z,13.00
2023-08-27T22:38:19.524Z,12.96
2023-08-27T22:40:46.287Z,12.94
2023-08-27T22:43:14.341Z,12.85
2023-08-27T22:45:41.118Z,12.94
2023-08-27T22:48:08.184Z,12.96
2023-08-27T22:50:34.936Z,12.92
2023-08-27T22:53:01.888Z,12.91
2023-08-27T22:55:28.790Z,12.95
2023-08-27T22:57:55.588Z,12.85
2023-08-27T23:00:23.723Z,12.97
2023-08-27T23:02:50.526Z,12.98
2023-08-27T23:05:17.228Z,12.95
2023-08-27T23:07:43.972Z,12.81
2023-08-27T23:10:10.710Z,12.86
2023-08-27T23:12:37.377Z,12.87
2023-08-27T23:15:04.860Z,12.84
2023-08-27T23:17:33.039Z,12.78
2023-08-27T23:19:59.771Z,12.87
2023-08-27T23:22:26.504Z,12.76
2023-08-27T23:24:53.157Z,12.73
2023-08-27T23:27:19.954Z,12.82
2023-08-27T23:29:46.612Z,12.77
2023-08-27T23:32:13.313Z,12.74
2023-08-27T23:34:41.373Z,12.80
2023-08-27T23:37:08.073Z,12.70
2023-08-27T23:39:34.802Z,12.90
2023-08-27T23:42:01.491Z,12.72
2023-08-27T23:44:28.224Z,12.69
2023-08-27T23:46:55.025Z,12.70
2023-08-27T23:49:21.754Z,12.67
2023-08-27T23:51:49.891Z,12.75
2023-08-27T23:54:16.602Z,12.62
2023-08-27T23:56:43.247Z,12.65
2023-08-27T23:59:09.965Z,12.63
